Time;durP1;ratioP1;P1;durP2;ratioP2;P2;SDS_P1;SDS_P2;PMS_P1;PMS_P2;Temp;Humidity;BMP_temperature;BMP_pressure;BME280_temperature;BME280_humidity;BME280_pressure;Samples;Min_cycle;Max_cycle;Signal;HPM_P1;HPM_P2
2021/05/11 00:00:34;;;;;;;6.85;3.30;;;18.80;77.60;;;;;;5016581;28;20034;-61
2021/05/11 00:03:00;;;;;;;6.38;3.50;;;18.70;78.00;;;;;;5017434;28;20044;-60
2021/05/11 00:05:30;;;;;;;4.32;3.60;;;18.70;78.70;;;;;;5012272;28;20429;-60
2021/05/11 00:07:57;;;;;;;6.47;3.20;;;18.40;79.90;;;;;;5027866;28;20053;-63
2021/05/11 00:10:27;;;;;;;9.50;3.63;;;18.50;79.80;;;;;;5013097;28;20042;-58
2021/05/11 00:12:53;;;;;;;4.85;3.40;;;18.60;79.80;;;;;;5014357;28;20087;-60
2021/05/11 00:15:19;;;;;;;8.45;3.58;;;18.50;80.00;;;;;;5016186;28;20041;-61
2021/05/11 00:17:46;;;;;;;5.07;3.70;;;18.50;80.20;;;;;;5015382;28;20504;-61
2021/05/11 00:20:13;;;;;;;5.53;3.63;;;18.50;80.60;;;;;;5026417;28;20029;-59
2021/05/11 00:22:38;;;;;;;6.05;4.15;;;18.40;81.10;;;;;;5011983;28;20551;-61
2021/05/11 00:25:04;;;;;;;6.25;3.95;;;18.40;81.20;;;;;;5027406;28;20033;-57
2021/05/11 00:27:30;;;;;;;5.90;4.55;;;18.30;81.80;;;;;;5015365;28;20133;-58
2021/05/11 00:29:56;;;;;;;7.15;4.78;;;18.20;82.60;;;;;;5014640;28;20149;-60
2021/05/11 00:32:22;;;;;;;6.47;4.43;;;18.30;82.60;;;;;;5016130;28;20061;-61
2021/05/11 00:34:48;;;;;;;5.47;4.70;;;18.30;83.00;;;;;;5022229;28;20536;-60
2021/05/11 00:37:13;;;;;;;6.75;4.85;;;18.20;83.50;;;;;;5013814;28;20033;-60
2021/05/11 00:39:39;;;;;;;5.80;4.80;;;18.20;83.50;;;;;;5025949;28;20029;-60
2021/05/11 00:42:04;;;;;;;5.57;4.40;;;18.20;83.80;;;;;;5014417;28;20038;-61
2021/05/11 00:44:30;;;;;;;6.85;4.75;;;18.10;84.10;;;;;;5011901;28;20108;-60
2021/05/11 00:46:58;;;;;;;8.57;5.78;;;18.10;84.40;;;;;;5027048;28;20088;-60
2021/05/11 00:49:29;;;;;;;12.80;5.53;;;18.10;84.60;;;;;;5025519;28;20056;-62
2021/05/11 00:51:55;;;;;;;6.47;5.40;;;18.10;84.60;;;;;;5020141;28;20474;-60
2021/05/11 00:54:22;;;;;;;7.53;5.45;;;18.10;84.40;;;;;;5053428;28;20507;-60
2021/05/11 00:56:48;;;;;;;9.65;5.78;;;18.10;84.50;;;;;;5012225;28;20045;-60
2021/05/11 00:59:20;;;;;;;9.52;6.30;;;18.20;84.40;;;;;;5027191;28;20520;-61
2021/05/11 01:01:47;;;;;;;8.90;6.15;;;18.20;84.50;;;;;;5025324;28;20032;-61
2021/05/11 01:04:13;;;;;;;8.20;5.72;;;18.20;84.30;;;;;;5028633;28;20041;-59
2021/05/11 01:06:40;;;;;;;8.52;5.68;;;18.20;84.70;;;;;;5012762;28;20037;-60
2021/05/11 01:09:06;;;;;;;10.27;6.30;;;18.10;84.90;;;;;;5021680;28;20034;-62
2021/05/11 01:11:33;;;;;;;7.50;6.15;;;18.10;85.20;;;;;;5016327;28;20080;-58
2021/05/11 01:13:59;;;;;;;8.77;5.90;;;18.10;85.30;;;;;;5014378;28;20037;-59
2021/05/11 01:16:27;;;;;;;6.28;5.68;;;18.00;85.50;;;;;;5019773;28;20433;-62
2021/05/11 01:18:55;;;;;;;8.45;6.00;;;18.10;85.60;;;;;;5021958;28;20033;-60
2021/05/11 01:26:49;;;;;;;8.30;6.40;;;18.00;86.10;;;;;;5031701;28;20485;-62
2021/05/11 01:29:36;;;;;;;8.23;5.95;;;17.90;86.70;;;;;;5027315;28;20053;-59
2021/05/11 01:46:28;;;;;;;16.65;9.40;;;17.80;87.00;;;;;;5018958;28;20038;-61
2021/05/11 01:48:57;;;;;;;9.98;6.60;;;17.70;87.50;;;;;;5025276;28;20037;-61
2021/05/11 01:54:28;;;;;;;9.63;6.10;;;17.70;87.30;;;;;;5017123;28;20026;-62
2021/05/11 02:23:50;;;;;;;;;;;17.80;86.40;;;;;;5024875;28;20500;-61
2021/05/11 02:26:16;;;;;;;6.25;5.65;;;17.70;86.50;;;;;;5039340;28;19975;-61
2021/05/11 02:28:41;;;;;;;6.40;5.20;;;17.70;86.70;;;;;;5039778;28;20053;-63
2021/05/11 02:31:07;;;;;;;6.97;5.88;;;17.70;86.80;;;;;;5019995;28;20490;-62
2021/05/11 02:33:32;;;;;;;6.78;5.68;;;17.70;86.60;;;;;;5028278;28;20045;-60
2021/05/11 02:35:58;;;;;;;8.77;5.95;;;17.80;86.50;;;;;;5025556;28;20418;-61
2021/05/11 02:38:24;;;;;;;9.50;5.93;;;17.70;86.70;;;;;;5027735;28;20128;-62
2021/05/11 02:40:49;;;;;;;6.15;5.32;;;17.70;86.50;;;;;;5031543;28;20092;-62
2021/05/11 02:43:48;;;;;;;11.05;5.72;;;17.60;87.10;;;;;;5031884;28;20051;-61
2021/05/11 02:46:07;;;;;;;8.98;5.20;;;17.60;86.80;;;;;;5023712;28;20057;-60
2021/05/11 02:48:32;;;;;;;11.50;6.03;;;17.50;87.20;;;;;;5022921;28;20544;-60
2021/05/11 02:50:58;;;;;;;8.00;5.35;;;17.50;87.50;;;;;;5012606;28;20129;-63
2021/05/11 02:53:23;;;;;;;7.93;6.40;;;17.50;87.20;;;;;;5028176;28;20489;-61
2021/05/11 02:55:49;;;;;;;8.85;5.30;;;17.50;87.20;;;;;;5019494;28;20034;-60
2021/05/11 02:58:15;;;;;;;7.32;5.70;;;17.50;87.20;;;;;;5027714;28;20036;-60
2021/05/11 03:00:42;;;;;;;9.00;5.10;;;17.40;87.50;;;;;;5019453;28;20045;-60
2021/05/11 03:03:08;;;;;;;7.75;5.50;;;17.40;87.40;;;;;;5024666;28;20053;-58
2021/05/11 03:05:34;;;;;;;6.15;4.97;;;17.40;87.30;;;;;;5037504;28;20571;-60
2021/05/11 03:07:59;;;;;;;9.63;5.60;;;17.40;87.20;;;;;;5032696;28;20112;-61
2021/05/11 03:10:25;;;;;;;6.95;4.82;;;17.30;87.60;;;;;;5029045;28;20045;-61
2021/05/11 03:12:50;;;;;;;7.18;4.95;;;17.40;87.20;;;;;;5018264;28;20041;-62
2021/05/11 03:15:16;;;;;;;5.47;4.82;;;17.40;87.30;;;;;;5022803;28;20045;-59
2021/05/11 03:17:42;;;;;;;6.03;4.88;;;17.30;87.40;;;;;;5028799;28;20087;-60
2021/05/11 03:20:10;;;;;;;6.78;4.88;;;17.30;87.30;;;;;;5012780;28;20466;-60
2021/05/11 03:22:36;;;;;;;8.15;5.07;;;17.40;87.20;;;;;;5027168;28;20052;-61
2021/05/11 03:25:02;;;;;;;7.35;5.20;;;17.20;87.30;;;;;;5038401;28;20037;-61
2021/05/11 03:27:28;;;;;;;8.55;4.80;;;17.30;87.50;;;;;;5021111;28;20072;-60
2021/05/11 03:29:54;;;;;;;7.32;4.38;;;17.30;87.40;;;;;;5012769;28;20060;-60
2021/05/11 03:32:20;;;;;;;5.75;4.43;;;17.20;87.60;;;;;;5018498;28;20141;-59
2021/05/11 03:34:45;;;;;;;8.80;4.75;;;17.20;87.50;;;;;;5030358;28;20065;-61
2021/05/11 03:37:11;;;;;;;9.55;5.18;;;17.20;87.30;;;;;;5029358;28;20029;-62
2021/05/11 03:39:42;;;;;;;6.13;4.75;;;17.30;87.00;;;;;;5022629;28;20042;-57
2021/05/11 03:42:17;;;;;;;9.82;5.10;;;17.30;87.30;;;;;;5017903;28;20065;-62
2021/05/11 03:44:45;;;;;;;6.88;4.65;;;17.30;87.10;;;;;;5019076;28;20045;-62
2021/05/11 03:47:15;;;;;;;6.70;4.88;;;17.10;88.50;;;;;;5043461;28;20049;-63
2021/05/11 03:49:41;;;;;;;7.53;4.53;;;17.20;87.30;;;;;;5022570;28;20044;-61
2021/05/11 03:52:06;;;;;;;5.30;4.60;;;17.10;87.40;;;;;;5044594;28;20037;-59
2021/05/11 03:54:33;;;;;;;9.73;4.75;;;17.10;87.50;;;;;;5043496;28;20125;-61
2021/05/11 03:56:58;;;;;;;5.85;4.20;;;17.10;87.70;;;;;;5039758;28;20155;-61
2021/05/11 03:59:24;;;;;;;7.00;4.80;;;17.00;87.80;;;;;;5015647;28;20493;-61
2021/05/11 04:01:49;;;;;;;5.68;4.40;;;17.00;87.90;;;;;;5030184;28;20079;-58
2021/05/11 04:04:15;;;;;;;6.90;4.47;;;17.10;87.90;;;;;;5019188;28;20135;-60
2021/05/11 04:06:44;;;;;;;5.60;4.50;;;17.00;88.10;;;;;;5040739;28;20025;-61
2021/05/11 04:16:37;;;;;;;7.43;5.13;;;17.00;87.80;;;;;;5021458;28;20030;-61
2021/05/11 04:19:03;;;;;;;6.18;4.65;;;17.00;87.70;;;;;;5021785;28;20091;-61
2021/05/11 04:21:29;;;;;;;6.07;4.25;;;17.00;88.00;;;;;;5029885;28;20033;-61
2021/05/11 04:23:55;;;;;;;6.15;4.57;;;17.00;88.10;;;;;;5030355;28;20033;-61
2021/05/11 04:26:22;;;;;;;6.30;4.72;;;17.00;87.90;;;;;;5029412;28;20034;-61
2021/05/11 04:28:48;;;;;;;5.95;4.65;;;17.00;88.20;;;;;;5023016;28;20037;-61
2021/05/11 04:31:14;;;;;;;8.65;4.80;;;16.90;88.70;;;;;;5043661;28;20049;-61
2021/05/11 04:33:40;;;;;;;8.45;5.00;;;16.90;88.90;;;;;;5029609;28;20033;-62
2021/05/11 04:36:06;;;;;;;7.88;4.80;;;16.90;88.60;;;;;;5039097;28;20040;-60
2021/05/11 04:38:33;;;;;;;6.57;5.05;;;16.80;89.30;;;;;;5023512;28;20138;-60
2021/05/11 04:40:58;;;;;;;6.35;4.97;;;16.80;89.00;;;;;;5010945;28;20041;-61
2021/05/11 04:43:25;;;;;;;6.95;4.65;;;16.60;89.60;;;;;;5035971;28;20544;-61
2021/05/11 04:46:11;;;;;;;5.80;4.85;;;16.70;89.20;;;;;;5022715;28;20045;-61
2021/05/11 04:48:37;;;;;;;5.68;4.72;;;16.80;89.40;;;;;;5023313;28;20048;-62
2021/05/11 04:51:03;;;;;;;6.00;5.00;;;16.70;89.30;;;;;;5027296;28;20128;-60
2021/05/11 04:53:28;;;;;;;9.57;5.75;;;16.60;89.90;;;;;;5022642;28;20041;-62
2021/05/11 04:55:54;;;;;;;6.18;5.15;;;16.70;89.70;;;;;;5019639;28;20037;-61
2021/05/11 04:58:20;;;;;;;8.38;5.15;;;16.60;90.00;;;;;;5019808;28;20113;-61
2021/05/11 05:00:45;;;;;;;7.20;5.55;;;16.50;90.20;;;;;;5025457;28;20132;-62
2021/05/11 05:03:15;;;;;;;5.80;5.18;;;16.60;90.10;;;;;;5028678;28;20405;-62
2021/05/11 05:05:43;;;;;;;10.02;5.60;;;16.60;90.00;;;;;;5014540;28;20064;-58
2021/05/11 05:08:09;;;;;;;8.35;5.63;;;16.50;90.10;;;;;;5026051;28;20038;-60
2021/05/11 05:10:35;;;;;;;6.95;5.68;;;16.60;90.00;;;;;;5023446;28;20064;-62
2021/05/11 05:13:00;;;;;;;7.00;5.53;;;16.60;89.90;;;;;;5037189;28;20537;-60
2021/05/11 05:15:26;;;;;;;7.68;5.35;;;16.50;90.10;;;;;;5018817;28;20065;-61
2021/05/11 05:17:52;;;;;;;8.55;5.40;;;16.60;90.10;;;;;;5029274;28;20425;-62
2021/05/11 05:20:17;;;;;;;6.22;5.22;;;16.70;89.30;;;;;;5045813;28;20110;-62
2021/05/11 05:22:44;;;;;;;8.48;6.63;;;16.70;89.50;;;;;;5014568;28;20033;-60
2021/05/11 05:25:13;;;;;;;9.95;6.10;;;16.80;89.00;;;;;;5021976;28;20068;-61
2021/05/11 05:30:19;;;;;;;6.97;5.70;;;16.60;90.20;;;;;;5016060;28;20038;-61
2021/05/11 05:32:45;;;;;;;8.07;5.47;;;16.50;90.00;;;;;;5027765;28;20447;-61
2021/05/11 05:35:11;;;;;;;9.93;5.90;;;16.30;90.50;;;;;;5030870;28;20037;-60
2021/05/11 05:37:37;;;;;;;7.57;5.80;;;16.40;90.30;;;;;;5021758;28;20041;-62
2021/05/11 05:40:05;;;;;;;6.82;5.75;;;16.50;90.00;;;;;;5043482;28;20183;-63
2021/05/11 05:42:31;;;;;;;8.80;5.78;;;16.60;89.70;;;;;;5019884;28;20049;-62
2021/05/11 05:44:56;;;;;;;7.97;5.93;;;16.70;89.50;;;;;;5032711;28;20701;-62
2021/05/11 05:47:22;;;;;;;8.45;5.28;;;16.80;89.00;;;;;;5013344;28;20037;-64
2021/05/11 05:49:51;;;;;;;7.35;5.63;;;16.80;88.70;;;;;;5058181;28;20428;-61
2021/05/11 05:52:21;;;;;;;9.93;6.07;;;17.00;88.50;;;;;;5019197;28;20021;-63
2021/05/11 05:54:47;;;;;;;7.20;6.25;;;16.90;87.80;;;;;;5035933;28;20083;-63
2021/05/11 05:57:14;;;;;;;12.85;6.45;;;17.00;87.90;;;;;;5021878;28;20079;-63
2021/05/11 05:59:41;;;;;;;7.78;6.53;;;17.00;88.20;;;;;;5036209;28;20037;-62
2021/05/11 06:02:16;;;;;;;8.00;7.20;;;16.70;88.80;;;;;;5032270;28;20088;-62
2021/05/11 06:04:42;;;;;;;8.00;6.05;;;16.70;88.60;;;;;;5036722;28;20065;-64
2021/05/11 06:07:07;;;;;;;9.73;6.07;;;16.70;89.00;;;;;;5014219;28;20053;-62
2021/05/11 06:09:33;;;;;;;8.30;6.68;;;16.80;88.60;;;;;;5025650;28;20107;-61
2021/05/11 06:12:09;;;;;;;8.23;6.55;;;16.70;89.00;;;;;;5021712;28;20029;-61
2021/05/11 06:17:21;;;;;;;9.73;6.75;;;16.60;88.90;;;;;;5024511;28;20042;-62
2021/05/11 06:19:48;;;;;;;7.40;6.45;;;16.60;88.60;;;;;;5038421;28;20041;-62
2021/05/11 06:22:15;;;;;;;8.73;6.03;;;16.30;90.10;;;;;;5020991;28;20397;-63
2021/05/11 06:24:41;;;;;;;6.78;6.07;;;16.40;90.00;;;;;;5046698;28;20489;-61
2021/05/11 06:27:09;;;;;;;7.05;6.20;;;16.60;89.40;;;;;;5030538;28;20053;-63
2021/05/11 06:29:37;;;;;;;7.63;5.50;;;16.70;88.10;;;;;;5025479;28;20132;-61
2021/05/11 06:32:04;;;;;;;7.00;6.38;;;16.60;88.00;;;;;;5040251;28;20045;-64
2021/05/11 06:34:30;;;;;;;6.75;5.90;;;16.70;87.80;;;;;;5029820;28;20599;-63
2021/05/11 06:36:56;;;;;;;6.57;5.65;;;16.70;88.00;;;;;;5032021;28;20033;-60
2021/05/11 06:39:22;;;;;;;7.57;5.95;;;16.70;88.40;;;;;;5022091;28;20516;-62
2021/05/11 06:41:50;;;;;;;6.25;5.63;;;16.80;87.50;;;;;;5035507;28;20061;-65
2021/05/11 06:44:33;;;;;;;7.78;6.47;;;16.90;87.20;;;;;;5035601;28;20033;-62
2021/05/11 06:47:27;;;;;;;7.47;6.03;;;17.00;86.90;;;;;;5040568;28;20080;-62
2021/05/11 06:50:10;;;;;;;7.75;6.07;;;17.20;86.40;;;;;;5042428;28;20124;-62
2021/05/11 06:55:08;;;;;;;9.07;6.07;;;17.30;85.70;;;;;;5011879;28;20042;-62
2021/05/11 06:57:33;;;;;;;;;;;17.30;85.70;;;;;;5033381;28;20660;-60
2021/05/11 06:59:59;;;;;;;7.05;6.20;;;17.40;85.40;;;;;;5030061;28;19909;-60
2021/05/11 07:02:25;;;;;;;9.02;7.03;;;17.50;85.30;;;;;;5016163;28;20169;-62
2021/05/11 07:04:53;;;;;;;8.77;6.53;;;17.30;85.90;;;;;;5011690;28;20034;-62
2021/05/11 07:07:21;;;;;;;9.05;6.70;;;17.30;85.50;;;;;;5013930;28;20117;-63
2021/05/11 07:14:59;;;;;;;7.70;6.50;;;17.60;84.20;;;;;;5014608;28;20053;-63
2021/05/11 07:17:28;;;;;;;7.82;7.03;;;17.60;84.80;;;;;;5026953;28;20045;-61
2021/05/11 07:19:53;;;;;;;8.93;7.53;;;17.50;85.00;;;;;;5017122;28;20037;-62
2021/05/11 07:22:20;;;;;;;7.72;6.97;;;17.20;85.60;;;;;;5021720;28;20068;-62
2021/05/11 07:24:50;;;;;;;10.40;7.40;;;17.20;85.90;;;;;;5021432;28;20033;-63
2021/05/11 07:27:29;;;;;;;9.90;6.65;;;17.10;86.20;;;;;;5026695;28;20551;-62
2021/05/11 07:30:11;;;;;;;8.75;6.70;;;17.30;85.80;;;;;;5013932;28;20026;-63
2021/05/11 07:32:37;;;;;;;8.38;6.88;;;17.30;85.70;;;;;;5023702;28;20217;-62
2021/05/11 07:35:05;;;;;;;6.60;5.53;;;17.40;85.40;;;;;;5028524;28;20029;-63
2021/05/11 07:37:30;;;;;;;9.50;6.22;;;17.60;85.10;;;;;;5031461;28;20033;-63
2021/05/11 07:39:56;;;;;;;14.20;6.60;;;17.70;84.70;;;;;;5024701;28;20704;-63
2021/05/11 07:42:22;;;;;;;7.15;6.25;;;17.80;84.30;;;;;;5013475;28;20106;-64
2021/05/11 07:44:50;;;;;;;8.07;6.18;;;17.90;83.60;;;;;;5018477;28;20065;-64
2021/05/11 07:47:21;;;;;;;9.10;5.90;;;18.10;83.20;;;;;;5028106;28;20017;-63
2021/05/11 07:56:29;;;;;;;11.70;6.63;;;18.20;82.60;;;;;;5010683;28;20038;-62
2021/05/11 08:16:31;;;;;;;8.32;6.47;;;18.10;82.60;;;;;;5024690;28;20041;-64
2021/05/11 08:19:05;;;;;;;8.00;6.75;;;18.30;83.10;;;;;;5012579;28;20038;-64
2021/05/11 08:27:34;;;;;;;8.77;6.97;;;18.50;81.90;;;;;;4990701;28;20197;-61
2021/05/11 08:29:59;;;;;;;8.05;5.90;;;18.50;81.60;;;;;;5013203;28;20547;-63
2021/05/11 08:32:25;;;;;;;10.90;7.00;;;18.70;81.70;;;;;;5031379;28;20060;-65
2021/05/11 08:34:50;;;;;;;11.23;7.32;;;18.70;81.20;;;;;;5025306;28;20603;-64
2021/05/11 08:37:16;;;;;;;10.85;7.90;;;18.40;82.40;;;;;;5030414;28;20061;-63
2021/05/11 08:39:44;;;;;;;11.90;7.18;;;18.00;83.10;;;;;;5021085;28;20513;-64
2021/05/11 08:42:09;;;;;;;8.15;7.18;;;18.10;83.60;;;;;;5029044;28;20088;-61
2021/05/11 08:44:35;;;;;;;10.52;7.22;;;18.10;83.50;;;;;;5028685;28;20671;-63
2021/05/11 08:47:01;;;;;;;11.75;7.15;;;18.30;83.10;;;;;;5027786;28;20068;-62
2021/05/11 08:49:27;;;;;;;9.98;6.50;;;18.40;82.50;;;;;;5031980;28;20394;-63
2021/05/11 08:52:12;;;;;;;9.23;6.93;;;18.70;82.40;;;;;;5030628;28;20060;-64
2021/05/11 08:55:00;;;;;;;9.38;7.50;;;18.80;81.40;;;;;;5026874;28;20033;-65
2021/05/11 09:28:04;;;;;;;8.55;7.53;;;20.30;76.80;;;;;;5026956;28;20072;-65
2021/05/11 09:58:31;;;;;;;10.10;7.95;;;20.60;76.70;;;;;;5026109;28;20038;-64
2021/05/11 10:48:40;;;;;;;11.07;10.05;;;21.70;73.80;;;;;;5021419;28;20045;-64
2021/05/11 10:51:14;;;;;;;11.63;10.40;;;22.10;73.00;;;;;;5023316;28;20033;-64
2021/05/11 10:53:46;;;;;;;14.32;9.95;;;22.10;72.50;;;;;;5020592;28;20049;-66
2021/05/11 10:56:34;;;;;;;10.73;9.73;;;21.70;74.10;;;;;;5027930;28;20116;-64
2021/05/11 11:02:38;;;;;;;10.02;9.02;;;21.90;73.60;;;;;;5021364;28;20057;-65
2021/05/11 11:05:05;;;;;;;11.70;10.02;;;22.20;73.50;;;;;;5026205;28;20556;-66
2021/05/11 11:07:33;;;;;;;13.77;11.02;;;22.50;73.00;;;;;;5030474;28;20496;-66
2021/05/11 11:10:00;;;;;;;11.77;10.57;;;22.30;73.10;;;;;;5037907;28;20046;-64
2021/05/11 11:12:36;;;;;;;11.43;10.32;;;21.90;73.10;;;;;;5024351;28;20081;-65
2021/05/11 11:15:05;;;;;;;11.25;10.13;;;22.00;73.10;;;;;;5018314;28;20025;-65
2021/05/11 11:17:38;;;;;;;11.82;10.65;;;22.40;72.20;;;;;;5043466;28;20068;-65
2021/05/11 11:20:05;;;;;;;13.55;11.32;;;22.50;72.00;;;;;;5030067;28;20049;-64
2021/05/11 11:25:15;;;;;;;12.90;11.70;;;22.00;73.20;;;;;;5030670;28;20037;-66
2021/05/11 11:27:41;;;;;;;13.32;11.93;;;21.60;74.30;;;;;;5030223;28;20049;-65
2021/05/11 11:30:12;;;;;;;12.30;11.05;;;21.60;74.50;;;;;;5023181;28;20037;-66
2021/05/11 11:32:37;;;;;;;16.35;11.25;;;21.90;74.40;;;;;;5024278;28;20029;-62
2021/05/11 11:35:09;;;;;;;12.73;10.52;;;22.10;73.80;;;;;;5029790;28;20041;-65
2021/05/11 11:37:35;;;;;;;12.70;11.38;;;22.30;73.30;;;;;;5023270;28;20030;-66
2021/05/11 11:40:11;;;;;;;14.07;12.65;;;22.20;73.10;;;;;;5047652;28;20040;-64
2021/05/11 11:42:42;;;;;;;13.40;11.98;;;22.10;73.70;;;;;;5029793;28;20045;-65
2021/05/11 11:45:12;;;;;;;14.90;12.07;;;22.50;73.10;;;;;;5034770;28;20119;-66
2021/05/11 11:47:42;;;;;;;12.63;11.32;;;22.50;73.10;;;;;;5028733;28;20112;-64
2021/05/11 11:50:09;;;;;;;13.07;11.77;;;22.30;73.20;;;;;;5041746;28;20074;-65
2021/05/11 11:52:58;;;;;;;13.45;11.90;;;21.90;73.70;;;;;;5038817;28;20491;-64
2021/05/11 11:55:56;;;;;;;13.65;12.25;;;21.70;74.20;;;;;;5029618;28;20025;-65
2021/05/11 11:58:27;;;;;;;13.70;12.40;;;21.90;74.10;;;;;;5033939;28;20052;-64
2021/05/11 12:00:53;;;;;;;14.35;13.05;;;21.70;75.00;;;;;;5018042;28;20040;-66
2021/05/11 12:03:22;;;;;;;12.35;11.10;;;21.70;75.00;;;;;;5040866;28;20025;-65
2021/05/11 12:05:53;;;;;;;14.45;12.90;;;22.00;74.60;;;;;;5034362;28;20049;-66
2021/05/11 12:08:28;;;;;;;14.63;13.43;;;22.20;73.60;;;;;;5045058;28;20032;-64
2021/05/11 12:11:08;;;;;;;14.27;12.77;;;22.10;73.20;;;;;;5053302;28;20408;-65
2021/05/11 12:13:35;;;;;;;15.30;12.50;;;22.00;73.60;;;;;;5034186;28;20053;-65
2021/05/11 12:16:08;;;;;;;14.57;13.07;;;21.90;74.10;;;;;;5037003;28;20095;-64
2021/05/11 12:18:35;;;;;;;12.95;11.55;;;21.90;73.90;;;;;;5030842;28;20455;-65
2021/05/11 12:21:04;;;;;;;14.35;12.95;;;22.40;73.40;;;;;;5033617;28;20439;-65
2021/05/11 12:23:30;;;;;;;12.68;11.48;;;22.40;72.20;;;;;;5037729;28;20033;-64
2021/05/11 12:26:01;;;;;;;13.30;12.10;;;22.60;72.00;;;;;;5027975;28;20170;-63
2021/05/11 12:28:43;;;;;;;13.65;12.45;;;22.40;72.50;;;;;;5034057;28;20034;-64
2021/05/11 12:31:10;;;;;;;14.18;12.07;;;22.60;71.90;;;;;;5031534;28;20037;-65
2021/05/11 12:33:44;;;;;;;14.00;11.27;;;22.50;72.60;;;;;;5033189;28;20037;-64
2021/05/11 12:36:25;;;;;;;13.10;11.73;;;22.70;72.10;;;;;;5031466;28;20036;-64
2021/05/11 12:39:11;;;;;;;13.55;12.25;;;23.10;71.20;;;;;;5032253;28;20087;-65
2021/05/11 12:41:36;;;;;;;14.55;11.88;;;22.60;72.80;;;;;;5032531;28;20044;-64
2021/05/11 12:44:03;;;;;;;15.88;12.05;;;22.60;73.40;;;;;;5031811;28;20038;-65
2021/05/11 12:46:36;;;;;;;14.00;12.50;;;22.50;73.00;;;;;;5025583;28;20125;-65
2021/05/11 12:49:17;;;;;;;12.98;11.68;;;22.50;72.70;;;;;;5044353;28;20144;-64
2021/05/11 12:51:45;;;;;;;13.68;12.35;;;22.50;73.00;;;;;;5017410;28;20033;-64
2021/05/11 12:54:41;;;;;;;13.60;12.13;;;22.30;73.50;;;;;;5025899;28;20037;-64
2021/05/11 12:57:15;;;;;;;13.85;12.23;;;22.20;74.30;;;;;;5018435;28;20029;-65
2021/05/11 12:59:57;;;;;;;14.68;12.68;;;22.20;73.30;;;;;;5047664;28;20025;-64
2021/05/11 13:05:13;;;;;;;39.85;23.75;;;22.20;74.00;;;;;;5035940;28;20071;-64
2021/05/11 13:16:14;;;;;;;;;;;22.50;72.10;;;;;;5036127;28;20485;-65
2021/05/11 13:22:02;;;;;;;12.55;11.35;;;22.50;73.20;;;;;;5038002;28;20038;-65
2021/05/11 13:32:23;;;;;;;14.10;11.07;;;22.90;71.70;;;;;;5029911;28;20037;-65
2021/05/11 13:34:48;;;;;;;13.57;12.20;;;22.70;72.50;;;;;;5040145;28;20026;-63
2021/05/11 13:37:14;;;;;;;12.63;11.43;;;22.50;72.90;;;;;;5030335;28;20029;-64
2021/05/11 13:39:40;;;;;;;14.38;12.05;;;22.60;73.10;;;;;;5040514;28;20547;-66
2021/05/11 13:42:05;;;;;;;12.60;11.43;;;21.70;75.90;;;;;;5030829;28;20034;-65
2021/05/11 13:44:31;;;;;;;13.07;11.68;;;21.80;75.70;;;;;;5028934;28;20037;-64
2021/05/11 13:46:56;;;;;;;13.93;10.90;;;22.30;74.80;;;;;;5032728;28;20485;-64
2021/05/11 13:49:22;;;;;;;12.85;11.55;;;22.50;74.40;;;;;;5039808;28;20536;-65
2021/05/11 13:51:48;;;;;;;12.18;11.07;;;22.70;73.40;;;;;;5042535;28;20124;-66
2021/05/11 13:54:16;;;;;;;12.60;11.32;;;22.90;72.20;;;;;;5024964;28;20405;-64
2021/05/11 14:02:37;;;;;;;18.52;11.02;;;22.80;72.60;;;;;;5038612;28;20060;-65
2021/05/11 14:05:03;;;;;;;12.20;11.00;;;22.90;72.90;;;;;;5040234;28;20720;-65
2021/05/11 14:07:29;;;;;;;12.93;11.63;;;22.80;72.80;;;;;;5037895;28;20033;-64
2021/05/11 14:09:55;;;;;;;11.45;10.10;;;22.80;72.70;;;;;;5020829;28;20518;-65
2021/05/11 14:12:20;;;;;;;11.07;10.00;;;22.80;72.90;;;;;;5026168;28;20039;-64
2021/05/11 14:14:46;;;;;;;13.05;11.10;;;22.80;73.20;;;;;;5018842;28;20053;-66
2021/05/11 14:17:11;;;;;;;12.23;11.15;;;22.70;73.50;;;;;;5050635;28;20033;-64
2021/05/11 14:19:37;;;;;;;11.90;10.60;;;22.40;74.20;;;;;;5037237;28;20377;-64
2021/05/11 14:22:03;;;;;;;12.18;10.25;;;22.00;76.40;;;;;;5038495;28;20033;-65
2021/05/11 14:24:29;;;;;;;12.65;10.65;;;22.20;75.30;;;;;;5032801;28;20354;-65
2021/05/11 14:26:54;;;;;;;13.40;12.07;;;22.40;74.50;;;;;;5018567;28;20049;-65
2021/05/11 14:29:20;;;;;;;16.75;12.82;;;22.70;73.00;;;;;;5042752;28;20128;-65
2021/05/11 14:31:46;;;;;;;13.68;12.48;;;22.70;73.00;;;;;;5014605;28;20030;-64
2021/05/11 14:34:14;;;;;;;12.32;11.13;;;22.70;73.00;;;;;;5033559;28;20021;-66
2021/05/11 14:36:39;;;;;;;12.57;11.38;;;22.60;73.60;;;;;;5016831;28;20030;-66
2021/05/11 14:39:05;;;;;;;12.55;10.95;;;22.50;73.80;;;;;;5029598;28;20385;-65
2021/05/11 14:41:31;;;;;;;13.05;11.65;;;22.60;73.80;;;;;;5014821;28;20049;-65
2021/05/11 14:43:57;;;;;;;12.80;11.57;;;22.50;74.30;;;;;;5030444;28;20444;-66
2021/05/11 14:46:23;;;;;;;11.90;10.70;;;22.30;74.80;;;;;;5013843;28;20620;-68
2021/05/11 14:48:50;;;;;;;12.02;10.82;;;22.60;74.00;;;;;;5052094;28;20478;-66
2021/05/11 14:51:18;;;;;;;10.45;9.40;;;22.80;73.60;;;;;;5013903;28;20129;-67
2021/05/11 14:53:44;;;;;;;10.85;9.75;;;22.60;74.10;;;;;;5036305;28;20122;-69
2021/05/11 14:56:11;;;;;;;11.23;9.77;;;22.60;73.70;;;;;;5025058;28;20121;-66
2021/05/11 14:58:37;;;;;;;10.07;9.00;;;22.60;73.20;;;;;;5017547;28;20030;-65
2021/05/11 15:01:03;;;;;;;14.88;10.45;;;22.60;73.70;;;;;;5013157;28;20046;-66
2021/05/11 15:03:29;;;;;;;11.18;9.27;;;22.70;72.80;;;;;;5024771;28;20041;-66
2021/05/11 15:05:55;;;;;;;10.75;9.65;;;22.90;72.80;;;;;;5033900;28;20049;-65
2021/05/11 15:08:23;;;;;;;12.35;10.15;;;22.70;73.90;;;;;;5033753;28;20124;-65
2021/05/11 15:10:49;;;;;;;10.10;9.10;;;22.50;74.30;;;;;;5018396;28;20561;-64
2021/05/11 15:13:16;;;;;;;10.80;9.57;;;22.50;74.20;;;;;;5020749;28;20030;-66
2021/05/11 15:15:46;;;;;;;10.65;9.60;;;22.50;75.00;;;;;;5024376;28;20030;-66
2021/05/11 15:18:12;;;;;;;11.00;9.05;;;22.40;74.40;;;;;;5031241;28;20045;-66
2021/05/11 15:20:39;;;;;;;11.23;9.98;;;22.50;74.70;;;;;;5026709;28;20033;-68
2021/05/11 15:23:05;;;;;;;10.23;9.30;;;21.80;76.30;;;;;;5023069;28;20397;-68
2021/05/11 15:25:31;;;;;;;11.98;9.55;;;21.70;76.70;;;;;;5046234;28;20108;-65
2021/05/11 15:27:57;;;;;;;12.20;10.70;;;21.90;76.00;;;;;;5036474;28;20086;-66
2021/05/11 15:30:28;;;;;;;13.65;10.25;;;21.80;75.70;;;;;;5034847;28;20128;-65
2021/05/11 15:32:55;;;;;;;10.27;9.38;;;21.70;76.50;;;;;;5024366;28;20176;-65
2021/05/11 15:35:25;;;;;;;12.10;9.35;;;21.50;76.60;;;;;;5042774;28;20032;-65
2021/05/11 15:37:55;;;;;;;13.13;10.27;;;21.40;77.30;;;;;;5040923;28;20032;-65
2021/05/11 15:40:22;;;;;;;10.35;9.40;;;21.20;77.50;;;;;;5013982;28;20026;-64
2021/05/11 15:42:49;;;;;;;11.00;9.90;;;21.20;77.50;;;;;;5017228;28;20044;-65
2021/05/11 15:45:17;;;;;;;9.95;9.05;;;21.10;77.60;;;;;;5014912;28;20037;-65
2021/05/11 15:47:53;;;;;;;10.95;9.85;;;21.20;77.80;;;;;;5044318;28;20536;-65
2021/05/11 15:50:25;;;;;;;11.43;10.20;;;21.00;77.90;;;;;;5014111;28;20053;-66
2021/05/11 15:52:52;;;;;;;12.00;10.00;;;20.80;79.00;;;;;;5013415;28;20029;-66
2021/05/11 15:55:18;;;;;;;11.65;9.80;;;20.50;79.70;;;;;;5017658;28;20021;-64
2021/05/11 15:57:44;;;;;;;10.20;9.07;;;20.50;80.10;;;;;;5013348;28;20034;-65
2021/05/11 16:00:10;;;;;;;12.48;11.13;;;20.60;79.80;;;;;;5013126;28;20144;-66
2021/05/11 16:02:35;;;;;;;10.27;9.27;;;20.50;79.60;;;;;;5014175;28;20371;-65
2021/05/11 16:05:01;;;;;;;11.23;10.13;;;20.40;80.20;;;;;;5031294;28;20037;-67
2021/05/11 16:07:27;;;;;;;11.15;10.10;;;20.20;80.70;;;;;;5036351;28;20046;-65
2021/05/11 16:09:53;;;;;;;13.27;9.98;;;20.00;81.40;;;;;;5013651;28;20498;-65
2021/05/11 16:12:19;;;;;;;12.68;10.45;;;20.10;81.10;;;;;;5017246;28;20025;-69
2021/05/11 16:14:44;;;;;;;11.93;10.73;;;20.10;81.40;;;;;;5013194;28;20490;-65
2021/05/11 16:17:10;;;;;;;13.68;10.35;;;20.00;81.60;;;;;;5016075;28;20084;-64
2021/05/11 16:19:35;;;;;;;13.00;10.40;;;19.70;82.70;;;;;;5032328;28;20030;-64
2021/05/11 16:22:01;;;;;;;18.88;10.57;;;19.60;83.10;;;;;;5032383;28;20055;-65
2021/05/11 16:24:26;;;;;;;11.23;10.13;;;19.60;83.10;;;;;;5026462;28;20442;-66
2021/05/11 16:26:52;;;;;;;11.30;10.02;;;19.70;82.80;;;;;;5040147;28;20069;-67
2021/05/11 16:29:18;;;;;;;11.73;10.57;;;19.70;82.50;;;;;;5011920;28;20048;-66
2021/05/11 16:31:47;;;;;;;13.32;10.75;;;19.70;82.50;;;;;;5027213;28;20390;-66
2021/05/11 16:34:15;;;;;;;12.15;10.82;;;19.80;82.10;;;;;;5030603;28;20037;-65
2021/05/11 16:36:40;;;;;;;13.95;11.82;;;19.70;83.40;;;;;;5043224;28;20033;-68
2021/05/11 16:39:06;;;;;;;14.40;12.88;;;19.40;86.10;;;;;;5012894;28;20038;-65
2021/05/11 16:41:32;;;;;;;13.57;12.27;;;19.30;86.70;;;;;;5039438;28;20037;-65
2021/05/11 16:43:58;;;;;;;14.68;13.23;;;19.10;87.90;;;;;;5050431;28;20033;-67
2021/05/11 16:46:24;;;;;;;15.15;13.60;;;18.90;88.30;;;;;;5014729;28;20038;-67